Time;durP1;ratioP1;P1;durP2;ratioP2;P2;SDS_P1;SDS_P2;PMS_P1;PMS_P2;Temp;Humidity;BMP_temperature;BMP_pressure;BME280_temperature;BME280_humidity;BME280_pressure;Samples;Min_cycle;Max_cycle;Signal;HPM_P1;HPM_P2
2021/10/24 00:01:44;;;;;;;8.43;4.60;;;5.20;99.90;;;;;;6276451;28;20024;-85
2021/10/24 00:04:45;;;;;;;6.47;4.70;;;;;;;;;;6276597;28;20082;-85
2021/10/24 00:07:46;;;;;;;5.65;4.13;;;;;;;;;;6275595;28;20071;-86
2021/10/24 00:10:47;;;;;;;6.85;4.20;;;;;;;;;;6292263;28;20027;-86
2021/10/24 00:13:47;;;;;;;7.85;4.60;;;5.20;99.90;;;;;;6292792;28;20116;-85
2021/10/24 00:16:49;;;;;;;5.68;4.03;;;;;;;;;;6276129;28;20078;-86
2021/10/24 00:19:49;;;;;;;5.15;4.07;;;;;;;;;;6276060;28;20546;-85
2021/10/24 00:22:50;;;;;;;6.95;4.32;;;;;;;;;;6292640;28;20039;-86
2021/10/24 00:25:51;;;;;;;7.03;3.97;;;5.30;99.90;;;;;;6275959;28;20481;-86
2021/10/24 00:28:52;;;;;;;6.97;3.78;;;;;;;;;;6259064;28;20045;-85
2021/10/24 00:31:53;;;;;;;4.60;3.50;;;;;;;;;;6275355;28;20052;-85
2021/10/24 00:34:54;;;;;;;9.57;4.28;;;;;;;;;;6275879;28;20028;-85
2021/10/24 00:37:55;;;;;;;6.05;4.15;;;;;;;;;;6275227;28;20021;-86
2021/10/24 00:40:56;;;;;;;5.95;4.25;;;;;;;;;;6275863;28;20075;-86
2021/10/24 00:43:58;;;;;;;6.93;4.22;;;;;;;;;;6275412;28;20466;-87
2021/10/24 00:47:00;;;;;;;4.63;3.92;;;5.00;99.90;;;;;;6291474;28;20509;-85
2021/10/24 00:50:01;;;;;;;4.88;3.67;;;;;;;;;;6258683;28;20052;-85
2021/10/24 00:53:02;;;;;;;7.70;5.10;;;;;;;;;;6291894;28;20031;-84
2021/10/24 00:56:03;;;;;;;5.07;4.15;;;4.80;99.90;;;;;;6291721;28;20370;-86
2021/10/24 00:59:03;;;;;;;5.28;4.10;;;4.70;99.90;;;;;;6259121;28;20078;-86
2021/10/24 01:02:04;;;;;;;6.10;4.20;;;5.00;99.90;;;;;;6258677;28;20489;-85
2021/10/24 01:05:05;;;;;;;6.63;4.20;;;6.60;99.90;;;;;;6274838;28;20119;-86
2021/10/24 01:08:07;;;;;;;5.53;4.13;;;4.30;99.90;;;;;;6258786;28;20115;-86
2021/10/24 01:11:08;;;;;;;6.67;4.30;;;;;;;;;;6258729;28;20032;-86
2021/10/24 01:14:09;;;;;;;6.65;4.50;;;;;;;;;;6292068;28;20029;-85
2021/10/24 01:17:10;;;;;;;4.75;3.70;;;4.30;99.90;;;;;;6275069;28;20104;-85
2021/10/24 01:20:24;;;;;;;5.43;3.90;;;4.20;99.90;;;;;;6258657;28;21027;-85
2021/10/24 01:23:25;;;;;;;7.13;4.28;;;6.60;99.90;;;;;;6276318;28;20028;-85
2021/10/24 01:26:26;;;;;;;6.85;4.30;;;;;;;;;;6258024;28;20477;-85
2021/10/24 01:29:26;;;;;;;9.05;4.40;;;3.90;99.90;;;;;;6291381;28;20100;-86
2021/10/24 01:32:30;;;;;;;8.93;4.60;;;3.80;99.90;;;;;;6258390;28;20032;-85
2021/10/24 01:35:31;;;;;;;7.07;4.90;;;4.00;99.90;;;;;;6258092;28;20024;-85
2021/10/24 01:38:32;;;;;;;11.55;5.85;;;;;;;;;;6258154;28;20470;-85
2021/10/24 01:41:33;;;;;;;9.15;5.57;;;3.60;99.90;;;;;;6274511;28;20039;-85
2021/10/24 01:44:34;;;;;;;7.60;5.40;;;;;;;;;;6258171;28;20454;-85
2021/10/24 01:47:34;;;;;;;6.07;4.82;;;3.50;99.90;;;;;;6276614;28;20060;-86
2021/10/24 01:50:35;;;;;;;6.95;5.13;;;3.50;99.90;;;;;;6280447;28;20113;-86
2021/10/24 01:53:38;;;;;;;6.88;4.22;;;3.40;99.90;;;;;;6280065;28;20174;-86
2021/10/24 01:56:38;;;;;;;;;;;3.80;99.90;;;;;;6263602;28;20090;-86
2021/10/24 01:59:39;;;;;;;5.88;4.38;;;;;;;;;;6295133;28;20366;-85
2021/10/24 02:02:40;;;;;;;6.80;4.35;;;3.40;99.90;;;;;;6279485;28;20024;-84
2021/10/24 02:05:41;;;;;;;4.55;4.13;;;;;;;;;;6262363;28;20500;-86
2021/10/24 02:08:42;;;;;;;7.78;5.07;;;3.30;99.90;;;;;;6295908;28;20036;-85
2021/10/24 02:11:42;;;;;;;7.20;5.10;;;3.40;99.90;;;;;;6261830;28;20382;-86
2021/10/24 02:14:43;;;;;;;7.57;4.75;;;;;;;;;;6262982;28;20031;-85
2021/10/24 02:17:44;;;;;;;5.95;4.82;;;;;;;;;;6295400;28;20031;-85
2021/10/24 02:20:45;;;;;;;6.50;4.55;;;3.40;99.90;;;;;;6278214;28;20366;-85
2021/10/24 02:23:46;;;;;;;5.97;4.45;;;;;;;;;;6261969;28;20029;-85
2021/10/24 02:26:47;;;;;;;4.85;3.97;;;;;;;;;;6279001;28;20037;-85
2021/10/24 02:29:48;;;;;;;6.00;4.38;;;;;;;;;;6279041;28;20108;-85
2021/10/24 02:32:48;;;;;;;6.38;4.20;;;3.00;99.90;;;;;;6295482;28;20032;-86
2021/10/24 02:35:49;;;;;;;10.27;4.68;;;;;;;;;;6278931;28;20090;-87
2021/10/24 02:38:50;;;;;;;7.13;4.82;;;;;;;;;;6295015;28;20046;-86
2021/10/24 02:41:51;;;;;;;6.90;4.60;;;;;;;;;;6278754;28;20082;-86
2021/10/24 02:44:52;;;;;;;7.90;4.53;;;2.90;99.90;;;;;;6278835;28;20046;-86
2021/10/24 02:47:53;;;;;;;5.80;4.22;;;;;;;;;;6261498;28;20071;-85
2021/10/24 02:50:54;;;;;;;7.07;4.05;;;2.80;99.90;;;;;;6277577;28;20134;-85
2021/10/24 02:53:55;;;;;;;5.63;4.05;;;;;;;;;;6261668;28;20048;-85
2021/10/24 02:56:56;;;;;;;6.72;4.70;;;2.80;99.90;;;;;;6294829;28;20058;-85
2021/10/24 02:59:56;;;;;;;9.43;4.57;;;3.00;99.90;;;;;;6259932;28;20486;-86
2021/10/24 03:02:57;;;;;;;5.43;4.13;;;2.60;99.90;;;;;;6261340;28;20028;-85
2021/10/24 03:05:58;;;;;;;7.57;4.50;;;;;;;;;;6261172;28;20028;-85
2021/10/24 03:08:59;;;;;;;10.93;5.18;;;2.90;99.90;;;;;;6277841;28;20036;-85
2021/10/24 03:11:59;;;;;;;9.02;4.90;;;;;;;;;;6261325;28;20520;-85
2021/10/24 03:15:02;;;;;;;5.97;4.72;;;;;;;;;;6277699;28;20107;-86
2021/10/24 03:18:03;;;;;;;8.68;5.05;;;;;;;;;;6277639;28;20028;-85
2021/10/24 03:21:03;;;;;;;8.68;4.63;;;3.10;99.90;;;;;;6277448;28;20024;-85
2021/10/24 03:24:04;;;;;;;5.80;4.68;;;2.80;99.90;;;;;;6260458;28;20031;-88
2021/10/24 03:27:05;;;;;;;6.15;4.53;;;2.90;99.90;;;;;;6260858;28;20106;-85
2021/10/24 03:30:06;;;;;;;5.35;4.05;;;2.80;99.90;;;;;;6277585;28;20020;-85
2021/10/24 03:33:07;;;;;;;5.07;4.05;;;2.80;99.90;;;;;;6277568;28;20039;-85
2021/10/24 03:36:08;;;;;;;6.65;4.47;;;;;;;;;;6277511;28;20037;-86
2021/10/24 03:39:08;;;;;;;5.35;4.53;;;2.70;99.90;;;;;;6293601;28;20090;-86
2021/10/24 03:42:09;;;;;;;6.50;4.82;;;;;;;;;;6260593;28;20025;-85
2021/10/24 03:45:10;;;;;;;4.95;3.90;;;2.80;99.90;;;;;;6293347;28;20020;-84
2021/10/24 03:48:11;;;;;;;7.50;4.15;;;;;;;;;;6276748;28;20159;-84
2021/10/24 03:51:12;;;;;;;5.00;4.40;;;;;;;;;;6276355;28;20033;-84
2021/10/24 03:54:13;;;;;;;5.10;3.92;;;;;;;;;;6293478;28;20100;-84
2021/10/24 03:57:13;;;;;;;6.47;4.95;;;2.60;99.90;;;;;;6293274;28;20040;-84
2021/10/24 04:00:14;;;;;;;5.95;4.47;;;3.50;99.90;;;;;;6276838;28;20366;-86
2021/10/24 04:03:15;;;;;;;6.25;4.57;;;;;;;;;;6276558;28;20047;-84
2021/10/24 04:06:16;;;;;;;9.18;4.55;;;2.30;99.90;;;;;;6276442;28;20060;-83
2021/10/24 04:09:17;;;;;;;6.60;4.95;;;2.30;99.90;;;;;;6259877;28;20033;-85
2021/10/24 04:12:18;;;;;;;5.53;4.28;;;;;;;;;;6259612;28;20025;-85
2021/10/24 04:15:19;;;;;;;5.78;4.57;;;;;;;;;;6276300;28;20024;-85
2021/10/24 04:18:20;;;;;;;7.50;4.45;;;2.30;99.90;;;;;;6292758;28;20028;-85
2021/10/24 04:21:21;;;;;;;12.23;7.25;;;;;;;;;;6276550;28;20462;-84
2021/10/24 04:24:21;;;;;;;10.93;8.88;;;;;;;;;;6276426;28;20028;-85
2021/10/24 04:27:22;;;;;;;8.40;6.30;;;;;;;;;;6276218;28;20537;-84
2021/10/24 04:30:23;;;;;;;5.00;4.50;;;1.90;99.90;;;;;;6275698;28;20032;-85
2021/10/24 04:33:24;;;;;;;12.48;6.90;;;;;;;;;;6258743;28;20177;-84
2021/10/24 04:36:25;;;;;;;9.05;7.68;;;;;;;;;;6275621;28;20060;-84
2021/10/24 04:39:26;;;;;;;9.05;5.22;;;2.00;99.90;;;;;;6275690;28;20016;-86
2021/10/24 04:42:27;;;;;;;10.10;5.97;;;;;;;;;;6258852;28;20037;-84
2021/10/24 04:45:30;;;;;;;12.68;9.10;;;;;;;;;;6293516;28;20024;-85
2021/10/24 04:48:31;;;;;;;8.18;5.10;;;2.00;99.90;;;;;;6275424;28;20147;-85
2021/10/24 04:51:32;;;;;;;7.78;4.63;;;;;;;;;;6259086;28;20093;-85
2021/10/24 04:54:35;;;;;;;8.18;5.13;;;;;;;;;;6275344;28;20056;-85
2021/10/24 04:57:36;;;;;;;7.88;5.00;;;;;;;;;;6275741;28;20029;-85
2021/10/24 05:00:38;;;;;;;7.18;4.53;;;;;;;;;;6292027;28;20585;-85
2021/10/24 05:03:38;;;;;;;6.80;5.60;;;2.10;99.90;;;;;;6275093;28;20036;-85
2021/10/24 05:06:39;;;;;;;7.93;4.50;;;;;;;;;;6258406;28;20467;-85
2021/10/24 05:09:40;;;;;;;6.85;5.18;;;2.10;99.90;;;;;;6275604;28;20050;-86
2021/10/24 05:12:41;;;;;;;5.38;4.70;;;;;;;;;;6258234;28;20024;-84
2021/10/24 05:15:41;;;;;;;5.65;4.43;;;2.10;99.90;;;;;;6292096;28;20028;-85
2021/10/24 05:18:42;;;;;;;6.95;4.25;;;2.20;99.90;;;;;;6258388;28;20037;-85
2021/10/24 05:21:42;;;;;;;7.13;4.38;;;2.00;99.90;;;;;;6258220;28;20394;-85
2021/10/24 05:24:43;;;;;;;5.88;4.22;;;;;;;;;;6258797;28;20056;-86
2021/10/24 05:27:48;;;;;;;4.75;4.15;;;1.90;99.90;;;;;;6275687;28;20047;-85
2021/10/24 05:30:49;;;;;;;8.23;4.50;;;;;;;;;;6275714;28;20112;-84
2021/10/24 05:33:50;;;;;;;8.52;4.35;;;;;;;;;;6274745;28;20025;-84
2021/10/24 05:36:51;;;;;;;6.00;4.13;;;;;;;;;;6274586;28;20036;-84
2021/10/24 05:39:51;;;;;;;6.03;5.20;;;2.00;99.90;;;;;;6274788;28;20027;-85
2021/10/24 05:42:52;;;;;;;8.85;5.80;;;1.90;99.90;;;;;;6258192;28;20035;-85
2021/10/24 05:45:53;;;;;;;9.25;6.18;;;;;;;;;;6274803;28;20103;-84
2021/10/24 05:48:53;;;;;;;8.30;5.72;;;2.20;99.90;;;;;;6274409;28;20056;-86
2021/10/24 05:51:54;;;;;;;7.50;5.25;;;2.40;99.90;;;;;;6257496;28;20040;-85
2021/10/24 05:54:55;;;;;;;7.88;6.07;;;2.50;99.90;;;;;;6274662;28;20028;-85
2021/10/24 05:57:55;;;;;;;5.22;4.40;;;2.10;99.90;;;;;;6258105;28;20028;-85
2021/10/24 06:00:56;;;;;;;6.35;5.75;;;;;;;;;;6274410;28;20078;-84
2021/10/24 06:03:57;;;;;;;6.65;5.00;;;2.00;99.90;;;;;;6272171;28;20127;-84
2021/10/24 06:06:57;;;;;;;7.85;6.40;;;2.80;99.90;;;;;;6257501;28;20044;-85
2021/10/24 06:10:06;;;;;;;8.50;4.97;;;4.30;99.90;;;;;;6291227;28;20077;-85
2021/10/24 06:13:07;;;;;;;6.70;4.75;;;2.00;99.90;;;;;;6259142;28;20474;-84
2021/10/24 06:16:08;;;;;;;16.67;12.80;;;2.70;99.90;;;;;;6257665;28;20024;-84
2021/10/24 06:19:08;;;;;;;8.95;5.90;;;4.10;99.90;;;;;;6257847;28;20112;-85
2021/10/24 06:22:09;;;;;;;6.00;4.55;;;;;;;;;;6256189;28;20036;-85
2021/10/24 06:25:12;;;;;;;6.07;5.15;;;1.90;99.90;;;;;;6273611;28;20028;-84
2021/10/24 06:28:15;;;;;;;6.25;5.18;;;1.90;99.90;;;;;;6274400;28;20047;-85
2021/10/24 06:31:16;;;;;;;4.90;4.38;;;1.90;99.90;;;;;;6257616;28;20028;-85
2021/10/24 06:34:17;;;;;;;7.15;4.75;;;;;;;;;;6260526;28;20051;-84
2021/10/24 06:37:19;;;;;;;5.93;4.05;;;;;;;;;;6278711;28;20489;-85
2021/10/24 06:40:20;;;;;;;6.47;4.45;;;;;;;;;;6277871;28;20538;-85
2021/10/24 06:43:21;;;;;;;5.30;3.95;;;;;;;;;;6278764;28;20035;-85
2021/10/24 06:46:22;;;;;;;5.38;4.10;;;2.00;99.90;;;;;;6278215;28;20101;-84
2021/10/24 06:49:22;;;;;;;11.40;5.15;;;2.30;99.90;;;;;;6261277;28;20065;-84
2021/10/24 06:52:23;;;;;;;7.32;5.97;;;;;;;;;;6261784;28;20041;-85
2021/10/24 06:55:24;;;;;;;7.63;5.60;;;3.60;99.90;;;;;;6278509;28;20078;-85
2021/10/24 06:58:25;;;;;;;8.43;7.50;;;4.40;99.90;;;;;;6278382;28;20028;-85
2021/10/24 07:01:26;;;;;;;6.38;4.75;;;;;;;;;;6260497;28;20031;-86
2021/10/24 07:04:26;;;;;;;6.60;4.30;;;5.50;99.90;;;;;;6277896;28;20107;-86
2021/10/24 07:07:27;;;;;;;4.50;3.80;;;;;;;;;;6261045;28;20083;-85
2021/10/24 07:10:28;;;;;;;5.18;3.72;;;;;;;;;;6278741;28;20042;-88
2021/10/24 07:13:29;;;;;;;4.78;3.55;;;8.10;99.90;;;;;;6278210;28;20027;-83
2021/10/24 07:16:30;;;;;;;4.70;4.10;;;;;;;;;;6278204;28;20033;-86
2021/10/24 07:19:31;;;;;;;10.02;8.63;;;8.90;99.90;;;;;;6278783;28;20486;-83
2021/10/24 07:22:31;;;;;;;8.57;4.88;;;;;;;;;;6262181;28;20047;-86
2021/10/24 07:25:32;;;;;;;6.25;4.82;;;8.70;99.90;;;;;;6277197;28;20477;-84
2021/10/24 07:28:33;;;;;;;8.98;5.90;;;9.50;99.90;;;;;;6261914;28;20052;-87
2021/10/24 07:31:34;;;;;;;7.25;4.40;;;;;;;;;;6260207;28;20029;-88
2021/10/24 07:34:37;;;;;;;5.63;4.25;;;10.70;99.90;;;;;;6277290;28;20024;-88
2021/10/24 07:37:38;;;;;;;4.35;3.90;;;10.90;99.90;;;;;;6259851;28;20394;-88
2021/10/24 07:40:39;;;;;;;4.20;3.80;;;11.20;99.90;;;;;;6260153;28;20029;-83
2021/10/24 07:43:40;;;;;;;4.75;3.60;;;11.40;99.90;;;;;;6260431;28;20112;-86
2021/10/24 07:46:41;;;;;;;4.70;3.92;;;;;;;;;;6276497;28;20032;-85
2021/10/24 07:49:42;;;;;;;4.10;3.70;;;12.20;99.90;;;;;;6293219;28;20059;-84
2021/10/24 07:52:42;;;;;;;6.47;4.40;;;12.10;99.90;;;;;;6259889;28;20386;-83
2021/10/24 07:55:43;;;;;;;5.82;4.28;;;13.10;99.90;;;;;;6259969;28;20108;-83
2021/10/24 07:58:44;;;;;;;6.07;4.22;;;13.30;99.90;;;;;;6276220;28;20107;-83
2021/10/24 08:01:45;;;;;;;7.00;4.40;;;13.80;99.90;;;;;;6292816;28;20032;-85
2021/10/24 08:04:47;;;;;;;5.88;3.90;;;13.70;97.20;;;;;;6276371;28;20369;-85
2021/10/24 08:07:48;;;;;;;6.57;4.00;;;13.70;95.20;;;;;;6275621;28;20467;-85
2021/10/24 08:10:48;;;;;;;5.70;3.95;;;13.90;94.70;;;;;;6276901;28;20024;-84
2021/10/24 08:13:49;;;;;;;5.03;4.00;;;12.20;93.40;;;;;;6275569;28;20448;-84
2021/10/24 08:16:49;;;;;;;8.25;4.03;;;13.90;99.50;;;;;;6259390;28;20028;-84
2021/10/24 08:19:50;;;;;;;10.85;6.72;;;14.40;92.70;;;;;;6292359;28;20101;-84
2021/10/24 08:22:51;;;;;;;6.03;3.90;;;14.60;98.00;;;;;;6276070;28;20474;-84
2021/10/24 08:25:52;;;;;;;6.78;4.88;;;15.30;90.80;;;;;;6291911;28;20055;-85
2021/10/24 08:28:53;;;;;;;3.97;3.53;;;15.40;99.90;;;;;;6258823;28;20597;-82
2021/10/24 08:31:54;;;;;;;7.40;3.33;;;15.30;92.20;;;;;;6275644;28;20394;-86
2021/10/24 08:34:55;;;;;;;4.20;3.33;;;15.40;89.60;;;;;;6259451;28;20656;-84
2021/10/24 08:37:55;;;;;;;6.05;4.32;;;15.10;97.10;;;;;;6259145;28;20028;-87
2021/10/24 08:40:57;;;;;;;5.97;4.13;;;15.30;98.70;;;;;;6258750;28;20038;-85
2021/10/24 08:43:59;;;;;;;11.07;5.45;;;15.90;99.90;;;;;;6275741;28;20029;-82
2021/10/24 08:47:00;;;;;;;;;;;16.00;86.60;;;;;;6275381;28;20127;-84
2021/10/24 08:50:01;;;;;;;8.52;5.15;;;16.30;98.80;;;;;;6275289;28;19920;-83
2021/10/24 08:53:02;;;;;;;6.68;3.95;;;;;;;;;;6275135;28;20032;-84
2021/10/24 08:56:03;;;;;;;8.10;4.57;;;;;;;;;;6291191;28;20023;-85
2021/10/24 08:59:04;;;;;;;4.32;3.75;;;16.60;91.10;;;;;;6291720;28;20033;-87
2021/10/24 09:02:05;;;;;;;6.10;3.60;;;16.80;83.60;;;;;;6274707;28;20200;-85
2021/10/24 09:05:06;;;;;;;5.90;3.45;;;17.10;80.70;;;;;;6290652;28;20074;-85
2021/10/24 09:08:14;;;;;;;5.13;3.85;;;17.60;81.40;;;;;;6273057;28;20123;-85
2021/10/24 09:11:17;;;;;;;6.13;3.83;;;18.30;90.60;;;;;;6253507;28;20032;-84
2021/10/24 09:14:41;;;;;;;5.95;3.35;;;18.40;89.10;;;;;;6274348;28;20017;-85
2021/10/24 09:17:41;;;;;;;5.60;3.95;;;19.20;92.10;;;;;;6290589;28;20028;-84
2021/10/24 09:20:42;;;;;;;5.30;3.30;;;19.70;90.50;;;;;;6257571;28;20024;-85
2021/10/24 09:23:46;;;;;;;7.55;3.90;;;19.70;73.80;;;;;;6274657;28;20119;-85
2021/10/24 09:26:47;;;;;;;5.15;3.58;;;20.10;69.20;;;;;;6274504;28;20497;-85
2021/10/24 09:29:48;;;;;;;6.07;3.75;;;20.20;68.10;;;;;;6271920;28;20064;-87
2021/10/24 09:32:52;;;;;;;4.40;3.40;;;20.60;66.10;;;;;;6256891;28;20078;-85
2021/10/24 09:35:53;;;;;;;7.13;3.53;;;21.00;62.00;;;;;;6291375;28;20465;-84
2021/10/24 09:39:07;;;;;;;6.38;3.92;;;21.00;79.90;;;;;;6271705;28;20040;-86
2021/10/24 09:42:25;;;;;;;5.18;3.35;;;20.90;81.50;;;;;;6272781;28;20378;-83
2021/10/24 09:45:26;;;;;;;4.55;3.53;;;20.80;62.90;;;;;;6274966;28;20136;-86
2021/10/24 09:48:33;;;;;;;5.65;3.78;;;20.90;64.70;;;;;;6274270;28;20060;-85
2021/10/24 09:51:35;;;;;;;4.70;3.65;;;21.10;62.70;;;;;;6274291;28;20037;-86
2021/10/24 09:54:35;;;;;;;5.35;4.05;;;20.80;65.70;;;;;;6273173;28;20034;-84
2021/10/24 09:57:36;;;;;;;6.68;4.00;;;21.10;65.00;;;;;;6257412;28;20036;-84
2021/10/24 10:00:36;;;;;;;5.60;3.65;;;20.90;64.40;;;;;;6274239;28;20079;-84
2021/10/24 10:03:37;;;;;;;4.75;3.75;;;20.80;65.40;;;;;;6273790;28;20025;-84
2021/10/24 10:06:40;;;;;;;5.90;4.43;;;20.40;78.00;;;;;;6273697;28;20028;-85
2021/10/24 10:09:41;;;;;;;6.88;4.20;;;20.50;91.30;;;;;;6261555;28;20044;-84
2021/10/24 10:12:48;;;;;;;5.35;4.15;;;20.60;90.70;;;;;;6278911;28;20068;-85
2021/10/24 10:15:49;;;;;;;5.28;3.97;;;20.60;79.00;;;;;;6261997;28;20032;-84
2021/10/24 10:18:56;;;;;;;5.18;3.95;;;20.90;90.00;;;;;;6278542;28;20102;-85
2021/10/24 10:21:57;;;;;;;6.65;4.20;;;20.60;80.60;;;;;;6295725;28;20406;-85
2021/10/24 10:24:59;;;;;;;4.85;3.90;;;20.70;77.40;;;;;;6278609;28;20029;-84
2021/10/24 10:27:59;;;;;;;6.65;4.07;;;20.70;63.50;;;;;;6294937;28;20040;-84
2021/10/24 10:31:12;;;;;;;5.22;4.00;;;20.70;64.90;;;;;;6261737;28;20428;-83
2021/10/24 10:34:13;;;;;;;7.70;4.10;;;20.80;64.10;;;;;;6262108;28;20033;-86
2021/10/24 10:37:37;;;;;;;6.20;4.63;;;20.80;64.40;;;;;;6278655;28;20072;-84
2021/10/24 10:40:38;;;;;;;7.53;4.30;;;20.70;63.50;;;;;;6295555;28;20466;-88
2021/10/24 10:43:40;;;;;;;4.40;3.63;;;20.50;63.90;;;;;;6261777;28;20033;-85
2021/10/24 10:46:40;;;;;;;6.00;4.10;;;20.30;65.10;;;;;;6278581;28;20174;-83
2021/10/24 10:49:41;;;;;;;6.25;4.07;;;20.20;65.30;;;;;;6261337;28;20652;-82
2021/10/24 10:52:42;;;;;;;7.72;3.80;;;20.10;66.80;;;;;;6277349;28;20071;-85
2021/10/24 10:56:01;;;;;;;6.05;4.03;;;20.00;83.20;;;;;;6261469;28;20664;-84
2021/10/24 10:59:04;;;;;;;6.25;4.10;;;20.10;67.30;;;;;;6293076;28;20486;-84
2021/10/24 11:02:25;;;;;;;6.75;3.90;;;20.00;67.20;;;;;;6277669;28;20028;-85
2021/10/24 11:05:35;;;;;;;4.88;3.72;;;19.90;68.50;;;;;;6264607;28;20020;-84
2021/10/24 11:08:48;;;;;;;4.80;3.60;;;20.00;67.80;;;;;;6277906;28;20037;-84
2021/10/24 11:11:49;;;;;;;4.40;3.55;;;19.90;93.90;;;;;;6278571;28;20024;-87
2021/10/24 11:14:50;;;;;;;5.53;3.83;;;;;;;;;;6293808;28;20028;-85
2021/10/24 11:17:51;;;;;;;4.90;3.45;;;;;;;;;;6294503;28;20031;-85
2021/10/24 11:20:52;;;;;;;6.03;3.70;;;;;;;;;;6293446;28;20032;-89
2021/10/24 11:23:56;;;;;;;5.40;3.70;;;19.80;68.50;;;;;;6277694;28;20027;-85
2021/10/24 11:26:57;;;;;;;5.55;4.25;;;;;;;;;;6259887;28;20032;-86
2021/10/24 11:30:04;;;;;;;19.50;8.85;;;19.70;69.70;;;;;;6277220;28;20066;-85
2021/10/24 11:33:05;;;;;;;6.00;4.80;;;19.50;74.00;;;;;;6261145;28;20114;-82
2021/10/24 11:36:07;;;;;;;4.65;3.67;;;;;;;;;;6276624;28;20029;-86
2021/10/24 11:39:07;;;;;;;24.75;9.23;;;19.50;71.40;;;;;;6276519;28;20020;-86
2021/10/24 11:42:15;;;;;;;15.35;6.22;;;19.60;91.10;;;;;;6258653;28;20119;-85
2021/10/24 11:45:20;;;;;;;5.53;4.38;;;19.60;73.90;;;;;;6268272;28;20481;-82
2021/10/24 12:54:30;;;;;;;5.78;4.22;;;17.70;99.90;;;;;;6321913;27;20194;-84
2021/10/24 12:57:30;;;;;;;9.55;5.03;;;17.50;97.10;;;;;;6314050;28;20020;-86
2021/10/24 13:00:32;;;;;;;7.47;4.25;;;17.40;93.40;;;;;;6326321;28;20104;-85
2021/10/24 13:03:32;;;;;;;6.55;4.68;;;17.50;98.40;;;;;;6302139;28;20032;-81
2021/10/24 13:06:33;;;;;;;7.95;4.95;;;;;;;;;;6315857;28;20109;-82
2021/10/24 13:09:35;;;;;;;6.40;4.18;;;;;;;;;;6320045;28;20026;-84
2021/10/24 13:12:36;;;;;;;6.00;4.43;;;;;;;;;;6322640;28;20412;-84
2021/10/24 13:15:37;;;;;;;7.30;4.80;;;;;;;;;;6318992;28;20039;-85
2021/10/24 13:18:38;;;;;;;4.85;4.35;;;17.40;93.20;;;;;;6313469;28;20032;-84
2021/10/24 13:24:40;;;;;;;6.35;4.63;;;;;;;;;;6317655;28;20032;-84
2021/10/24 13:27:40;;;;;;;6.35;4.80;;;17.60;90.50;;;;;;6312872;28;20107;-84
2021/10/24 13:30:41;;;;;;;7.13;4.57;;;17.40;81.80;;;;;;6322143;28;20385;-87
2021/10/24 13:33:42;;;;;;;4.85;4.25;;;17.40;82.00;;;;;;6280845;28;20036;-83
2021/10/24 13:36:42;;;;;;;5.70;4.60;;;17.40;82.90;;;;;;6324299;28;20036;-82
2021/10/24 13:39:43;;;;;;;5.63;4.38;;;17.40;82.50;;;;;;6317587;28;20692;-82
2021/10/24 13:42:44;;;;;;;6.38;4.78;;;17.40;81.50;;;;;;6336592;28;20127;-83
2021/10/24 13:45:44;;;;;;;5.68;4.30;;;17.30;82.20;;;;;;6319550;28;20067;-83
2021/10/24 13:48:45;;;;;;;6.43;4.18;;;17.20;82.30;;;;;;6333244;28;20031;-84
2021/10/24 13:51:46;;;;;;;5.97;4.68;;;17.10;94.30;;;;;;6277932;28;20440;-84
2021/10/24 13:54:46;;;;;;;8.10;4.65;;;17.10;83.00;;;;;;6278450;28;20504;-84
2021/10/24 13:57:48;;;;;;;8.50;4.55;;;17.10;94.40;;;;;;6282562;28;20036;-84
2021/10/24 14:00:49;;;;;;;13.20;5.85;;;;;;;;;;6288039;28;20028;-85
2021/10/24 14:03:55;;;;;;;16.52;5.10;;;17.10;89.40;;;;;;6282949;28;20043;-85
2021/10/24 14:06:56;;;;;;;6.40;4.38;;;17.00;85.70;;;;;;6288120;28;20025;-84
2021/10/24 14:09:57;;;;;;;4.95;3.88;;;;;;;;;;6276084;28;20497;-87
2021/10/24 14:12:58;;;;;;;7.05;4.88;;;17.20;95.20;;;;;;6311334;28;20029;-86
2021/10/24 14:15:59;;;;;;;6.18;4.40;;;;;;;;;;6279119;28;20024;-88
2021/10/24 14:19:00;;;;;;;4.82;3.80;;;;;;;;;;6272743;28;20545;-88
2021/10/24 14:22:01;;;;;;;5.88;4.85;;;;;;;;;;6290111;28;20378;-87
2021/10/24 14:25:05;;;;;;;4.65;3.97;;;16.50;82.20;;;;;;6291171;28;20089;-88
2021/10/24 14:28:08;;;;;;;5.03;3.80;;;16.40;93.90;;;;;;6274456;28;20039;-89
2021/10/24 14:31:20;;;;;;;6.00;4.35;;;20.30;85.90;;;;;;6271190;28;20057;-87
2021/10/24 14:42:44;;;;;;;4.70;3.72;;;16.30;83.20;;;;;;6232824;28;20038;-92
2021/10/24 14:50:49;;;;;;;6.45;4.05;;;16.10;85.40;;;;;;6182617;28;20074;-91
2021/10/24 14:54:41;;;;;;;7.93;4.40;;;16.00;86.70;;;;;;6162223;28;20583;-91
2021/10/24 15:01:52;;;;;;;8.25;4.25;;;15.70;90.80;;;;;;6123228;29;20036;-90
2021/10/24 15:05:00;;;;;;;7.90;4.60;;;15.50;90.80;;;;;;6082238;29;20039;-90
2021/10/24 15:08:10;;;;;;;6.20;4.57;;;15.60;90.50;;;;;;6122869;29;20047;-88
2021/10/24 15:11:14;;;;;;;6.07;4.15;;;15.30;90.60;;;;;;6096945;29;20106;-89
2021/10/24 15:14:15;;;;;;;9.13;4.70;;;15.20;99.80;;;;;;6150810;28;20065;-89
2021/10/24 15:17:19;;;;;;;5.32;4.30;;;15.50;99.90;;;;;;6160855;28;20517;-89
2021/10/24 15:23:58;;;;;;;5.47;4.30;;;;;;;;;;6198979;28;20517;-89
2021/10/24 15:27:28;;;;;;;6.25;4.03;;;;;;;;;;6227864;28;20048;-90
2021/10/24 15:30:29;;;;;;;5.78;3.90;;;;;;;;;;6226872;28;20033;-86
2021/10/24 15:45:23;;;;;;;6.97;4.80;;;;;;;;;;6244788;28;20096;-90
2021/10/24 15:48:23;;;;;;;5.07;4.07;;;14.40;98.70;;;;;;6242519;28;20447;-87
2021/10/24 15:51:24;;;;;;;5.28;3.78;;;;;;;;;;6224165;28;20026;-87
2021/10/24 15:54:25;;;;;;;4.68;3.38;;;14.10;93.40;;;;;;6240190;28;20423;-87
2021/10/24 15:57:26;;;;;;;6.90;3.65;;;;;;;;;;6223381;28;20089;-85
2021/10/24 16:00:27;;;;;;;4.70;3.20;;;13.80;95.00;;;;;;6257507;28;20033;-82
2021/10/24 16:03:27;;;;;;;6.45;3.70;;;13.50;99.90;;;;;;6223192;28;20025;-82
2021/10/24 16:06:28;;;;;;;4.80;3.13;;;13.10;99.90;;;;;;6223624;28;20679;-84
2021/10/24 16:09:29;;;;;;;5.40;3.40;;;12.50;99.90;;;;;;6226801;28;20026;-83
2021/10/24 16:12:30;;;;;;;7.03;3.93;;;12.60;99.90;;;;;;6235635;28;20128;-83
2021/10/24 16:15:31;;;;;;;5.35;3.33;;;12.70;99.90;;;;;;6233622;28;20040;-82
2021/10/24 16:18:31;;;;;;;6.03;3.63;;;12.50;99.90;;;;;;6241367;28;20376;-86
2021/10/24 16:21:32;;;;;;;7.00;4.53;;;12.00;99.90;;;;;;6235280;28;20060;-82
2021/10/24 16:24:33;;;;;;;4.00;3.28;;;12.10;99.90;;;;;;6235881;28;20531;-82
2021/10/24 16:27:34;;;;;;;10.00;7.28;;;;;;;;;;6239963;28;20116;-83
2021/10/24 16:30:35;;;;;;;12.57;8.88;;;;;;;;;;6258052;28;20143;-84
2021/10/24 16:33:35;;;;;;;8.88;5.90;;;11.90;99.90;;;;;;6230781;28;20057;-82
2021/10/24 16:36:36;;;;;;;20.35;12.60;;;11.50;99.90;;;;;;6225851;28;20029;-82
2021/10/24 16:39:37;;;;;;;41.70;26.33;;;10.90;99.90;;;;;;6229958;28;20083;-84
2021/10/24 16:42:38;;;;;;;31.85;22.33;;;11.10;99.90;;;;;;6245010;28;20025;-86
2021/10/24 16:45:39;;;;;;;38.10;23.30;;;10.80;99.90;;;;;;6230717;28;20116;-83
2021/10/24 16:48:40;;;;;;;12.25;8.65;;;10.70;99.90;;;;;;6266142;28;20087;-80
2021/10/24 16:51:40;;;;;;;18.95;10.02;;;10.70;99.90;;;;;;6234305;28;20064;-86
2021/10/24 16:54:41;;;;;;;68.03;41.97;;;10.50;99.90;;;;;;6232895;28;20037;-83
2021/10/24 16:57:41;;;;;;;40.25;18.83;;;10.40;99.90;;;;;;6274046;28;20042;-84
2021/10/24 17:00:42;;;;;;;31.83;20.88;;;10.30;99.90;;;;;;6286631;28;20032;-83
2021/10/24 17:03:43;;;;;;;8.00;5.90;;;10.40;99.90;;;;;;6278166;28;20028;-82
2021/10/24 17:06:43;;;;;;;12.45;8.98;;;10.20;99.90;;;;;;6304845;28;20102;-82
2021/10/24 17:09:44;;;;;;;6.63;5.13;;;;;;;;;;6273128;28;20051;-83
2021/10/24 17:12:45;;;;;;;18.65;15.55;;;10.00;99.90;;;;;;6301695;28;20044;-83
2021/10/24 17:15:45;;;;;;;9.20;6.72;;;9.90;99.90;;;;;;6274012;28;20466;-83
2021/10/24 17:18:46;;;;;;;10.80;7.10;;;;;;;;;;6263902;28;20153;-84
2021/10/24 17:21:47;;;;;;;8.27;5.20;;;9.70;99.90;;;;;;6315625;28;20027;-82
2021/10/24 17:24:48;;;;;;;10.05;6.32;;;9.70;99.90;;;;;;6268306;28;20032;-86
2021/10/24 17:27:48;;;;;;;10.80;8.43;;;9.60;99.90;;;;;;6270707;28;20077;-82
2021/10/24 17:30:50;;;;;;;6.88;5.55;;;;;;;;;;6297390;28;20027;-87
2021/10/24 17:33:50;;;;;;;9.68;6.40;;;9.50;99.90;;;;;;6276935;28;20406;-81
2021/10/24 17:36:51;;;;;;;9.25;5.63;;;9.30;99.90;;;;;;6273087;28;20047;-85
2021/10/24 17:39:52;;;;;;;8.07;5.38;;;9.10;99.90;;;;;;6266627;28;20568;-83
2021/10/24 17:42:53;;;;;;;9.38;6.13;;;9.20;99.90;;;;;;6265080;28;20463;-83
2021/10/24 17:45:54;;;;;;;9.32;6.10;;;9.00;99.90;;;;;;6264529;28;20025;-83
2021/10/24 17:48:57;;;;;;;8.75;6.63;;;9.00;99.90;;;;;;6263502;28;20032;-84
2021/10/24 17:51:58;;;;;;;9.75;6.35;;;8.40;99.90;;;;;;6267042;28;21052;-81
2021/10/24 17:54:59;;;;;;;8.48;5.95;;;;;;;;;;6265674;28;20573;-83
2021/10/24 17:57:59;;;;;;;12.40;7.82;;;8.60;99.90;;;;;;6279904;28;20074;-84
2021/10/24 18:01:00;;;;;;;14.88;10.15;;;8.50;99.90;;;;;;6265487;28;20035;-84
2021/10/24 18:04:01;;;;;;;7.40;5.75;;;8.70;99.90;;;;;;6272847;28;20103;-85
2021/10/24 18:07:02;;;;;;;10.00;6.45;;;;;;;;;;6267715;28;20029;-83
2021/10/24 18:10:04;;;;;;;10.35;6.90;;;8.80;99.90;;;;;;6283494;28;20429;-81
2021/10/24 18:13:04;;;;;;;9.50;6.57;;;8.30;99.90;;;;;;6264194;28;20043;-82